Time;durP1;ratioP1;P1;durP2;ratioP2;P2;SDS_P1;SDS_P2;PMS_P1;PMS_P2;Temp;Humidity;BMP_temperature;BMP_pressure;BME280_temperature;BME280_humidity;BME280_pressure;Samples;Min_cycle;Max_cycle;Signal;HPM_P1;HPM_P2
2021/12/02 00:00:59;;;;;;;28.92;14.23;;;;;;;;;;4957066;28;20027;-69
2021/12/02 00:03:26;;;;;;;32.47;16.02;;;;;;;;;;4953865;28;20458;-73
2021/12/02 00:05:52;;;;;;;49.00;24.88;;;;;;;;;;4941053;28;20031;-73
2021/12/02 00:08:18;;;;;;;45.33;23.85;;;;;;;;;;4956490;28;20066;-72
2021/12/02 00:10:44;;;;;;;46.65;24.20;;;;;;;;;;4956515;28;20035;-73
2021/12/02 00:13:11;;;;;;;40.10;24.20;;;;;;;;;;4956440;28;20129;-72
2021/12/02 00:15:48;;;;;;;43.22;23.40;;;;;;;;;;4956302;28;20038;-71
2021/12/02 00:23:38;;;;;;;45.45;24.48;;;;;;;;;;4987405;28;20050;-71
2021/12/02 00:26:14;;;;;;;36.15;18.90;;;;;;;;;;4975627;28;20077;-71
2021/12/02 00:28:40;;;;;;;40.80;17.25;;;;;;;;;;4975645;28;20043;-69
2021/12/02 00:31:13;;;;;;;37.67;18.17;;;;;;;;;;4975584;28;20085;-72
2021/12/02 00:33:44;;;;;;;47.45;21.20;;;;;;;;;;4975367;28;20114;-73
2021/12/02 00:36:14;;;;;;;39.92;20.25;;;;;;;;;;4975313;28;20096;-67
2021/12/02 00:38:41;;;;;;;51.30;24.58;;;;;;;;;;4974721;28;20421;-68
2021/12/02 00:41:11;;;;;;;40.47;22.10;;;;;;;;;;4975304;28;20109;-67
2021/12/02 00:43:39;;;;;;;58.95;24.65;;;;;;;;;;4975262;28;20158;-68
2021/12/02 00:46:09;;;;;;;50.83;22.48;;;;;;;;;;4974974;28;20026;-68
2021/12/02 00:48:36;;;;;;;33.17;17.30;;;;;;;;;;4974789;28;20031;-66
2021/12/02 00:51:04;;;;;;;30.40;17.38;;;;;;;;;;4975305;28;20026;-67
2021/12/02 00:53:36;;;;;;;34.88;17.77;;;;;;;;;;4975364;28;20074;-66
2021/12/02 00:56:05;;;;;;;35.92;17.85;;;;;;;;;;4975314;28;20550;-67
2021/12/02 00:58:32;;;;;;;38.83;17.85;;;;;;;;;;4975319;28;20022;-66
2021/12/02 01:00:59;;;;;;;32.88;17.05;;;;;;;;;;4975712;28;20035;-68
2021/12/02 01:03:34;;;;;;;36.03;18.55;;;;;;;;;;5005748;28;20015;-70
2021/12/02 01:06:04;;;;;;;37.08;20.00;;;;;;;;;;4975358;28;20041;-66
2021/12/02 01:08:35;;;;;;;33.03;19.25;;;;;;;;;;4975279;28;20031;-66
2021/12/02 01:11:01;;;;;;;35.70;18.48;;;;;;;;;;4981121;28;20521;-65
2021/12/02 01:13:27;;;;;;;31.52;16.75;;;;;;;;;;4975444;28;20037;-67
2021/12/02 01:15:53;;;;;;;34.13;17.50;;;;;;;;;;4975707;28;20397;-66
2021/12/02 01:18:20;;;;;;;32.33;16.40;;;;;;;;;;4975555;28;20085;-67
2021/12/02 01:20:49;;;;;;;32.53;15.55;;;;;;;;;;4975592;28;20375;-66
2021/12/02 01:23:17;;;;;;;37.80;15.95;;;;;;;;;;4975348;28;20022;-66
2021/12/02 01:25:52;;;;;;;24.88;13.88;;;;;;;;;;4974430;28;20035;-66
2021/12/02 01:28:19;;;;;;;24.27;12.82;;;;;;;;;;4975397;28;20133;-65
2021/12/02 01:30:45;;;;;;;26.60;12.68;;;;;;;;;;4975509;28;20539;-66
2021/12/02 01:33:15;;;;;;;22.33;11.10;;;;;;;;;;4975522;28;20122;-66
2021/12/02 01:35:43;;;;;;;24.58;10.52;;;;;;;;;;4973706;28;20490;-66
2021/12/02 01:38:10;;;;;;;17.88;9.25;;;;;;;;;;4993516;28;20091;-66
2021/12/02 01:40:36;;;;;;;26.38;11.00;;;;;;;;;;4984409;28;20026;-65
2021/12/02 01:43:02;;;;;;;19.80;10.15;;;;;;;;;;4974894;28;20386;-65
2021/12/02 01:45:29;;;;;;;26.20;12.05;;;;;;;;;;4975020;28;20026;-66
2021/12/02 01:47:58;;;;;;;22.33;11.13;;;;;;;;;;4982256;28;20042;-66
2021/12/02 01:50:26;;;;;;;17.80;8.60;;;;;;;;;;4994282;28;20450;-65
2021/12/02 01:52:58;;;;;;;14.00;8.05;;;;;;;;;;5001831;28;20437;-65
2021/12/02 01:55:25;;;;;;;11.82;7.13;;;;;;;;;;4994534;28;20389;-65
2021/12/02 01:57:59;;;;;;;17.88;7.28;;;;;;;;;;4992012;28;20038;-65
2021/12/02 02:00:44;;;;;;;16.92;7.35;;;;;;;;;;4994159;28;20037;-66
2021/12/02 02:03:12;;;;;;;12.15;6.25;;;;;;;;;;4994119;28;20034;-66
2021/12/02 02:05:38;;;;;;;11.48;5.68;;;;;;;;;;4994466;28;20022;-66
2021/12/02 02:08:21;;;;;;;11.25;5.03;;;;;;;;;;4994045;28;20504;-67
2021/12/02 02:10:49;;;;;;;14.80;7.43;;;;;;;;;;4971227;28;20445;-68
2021/12/02 02:13:17;;;;;;;16.80;7.47;;;;;;;;;;4993765;28;20031;-67
2021/12/02 02:15:47;;;;;;;12.10;5.03;;;;;;;;;;4993583;28;20405;-67
2021/12/02 02:18:23;;;;;;;10.68;5.28;;;;;;;;;;4993596;28;20465;-66
2021/12/02 02:23:27;;;;;;;11.65;4.28;;;;;;;;;;4993712;28;20202;-67
2021/12/02 02:25:53;;;;;;;9.65;4.20;;;;;;;;;;4993589;28;20019;-68
2021/12/02 02:28:19;;;;;;;10.63;4.43;;;;;;;;;;4993452;28;20413;-69
2021/12/02 02:30:45;;;;;;;8.95;4.55;;;;;;;;;;4993879;28;20031;-68
2021/12/02 02:33:12;;;;;;;10.50;4.07;;;;;;;;;;4993937;28;20092;-66
2021/12/02 02:35:40;;;;;;;8.80;3.65;;;;;;;;;;4998318;28;20085;-70
2021/12/02 02:38:06;;;;;;;8.50;3.95;;;;;;;;;;4993492;28;20053;-71
2021/12/02 02:40:33;;;;;;;9.43;4.32;;;;;;;;;;4993383;28;20023;-71
2021/12/02 02:43:06;;;;;;;11.68;5.57;;;;;;;;;;4993285;28;20496;-69
2021/12/02 02:45:32;;;;;;;15.75;6.35;;;;;;;;;;4993060;28;20069;-70
2021/12/02 02:47:58;;;;;;;16.92;7.88;;;;;;;;;;4993021;28;20046;-67
2021/12/02 02:50:24;;;;;;;14.82;7.82;;;;;;;;;;4993236;28;20037;-67
2021/12/02 02:53:09;;;;;;;25.50;11.65;;;;;;;;;;4993163;28;20037;-68
2021/12/02 02:55:36;;;;;;;28.38;12.82;;;;;;;;;;4993037;28;20481;-67
2021/12/02 02:58:10;;;;;;;19.08;8.80;;;;;;;;;;4992946;28;20053;-70
2021/12/02 03:00:45;;;;;;;20.73;9.55;;;;;;;;;;4985642;28;20046;-67
2021/12/02 03:09:25;;;;;;;22.98;8.55;;;;;;;;;;4980632;28;20038;-65
2021/12/02 03:11:38;;;;;;;21.15;10.00;;;;;;;;;;4977762;28;20406;-66
2021/12/02 03:14:11;;;;;;;24.25;10.65;;;;;;;;;;4973224;28;20397;-67
2021/12/02 03:16:44;;;;;;;20.37;10.07;;;;;;;;;;4973582;28;20519;-64
2021/12/02 03:19:14;;;;;;;16.15;8.02;;;;;;;;;;4973879;28;20062;-69
2021/12/02 03:21:41;;;;;;;16.63;7.93;;;;;;;;;;4973095;28;20043;-66
2021/12/02 03:24:07;;;;;;;16.25;7.70;;;;;;;;;;4972845;28;20068;-66
2021/12/02 03:26:33;;;;;;;16.15;7.95;;;;;;;;;;4969442;28;20034;-65
2021/12/02 03:29:00;;;;;;;14.93;7.38;;;;;;;;;;4953305;28;20039;-68
2021/12/02 03:31:26;;;;;;;16.38;7.72;;;;;;;;;;4953080;29;20413;-65
2021/12/02 03:33:53;;;;;;;13.45;7.30;;;;;;;;;;4953669;28;20085;-66
2021/12/02 03:36:19;;;;;;;12.70;7.07;;;;;;;;;;4954960;28;20039;-64
2021/12/02 03:38:46;;;;;;;12.75;7.22;;;;;;;;;;4954772;28;20107;-66
2021/12/02 03:41:12;;;;;;;12.60;6.00;;;;;;;;;;4955061;29;20042;-66
2021/12/02 03:43:40;;;;;;;9.02;4.55;;;;;;;;;;4954857;28;20030;-65
2021/12/02 03:46:08;;;;;;;10.75;5.15;;;;;;;;;;4953903;29;20087;-65
2021/12/02 03:48:36;;;;;;;9.05;4.28;;;;;;;;;;4954305;28;20382;-66
2021/12/02 03:51:06;;;;;;;11.90;4.90;;;;;;;;;;4954687;28;20062;-66
2021/12/02 03:53:33;;;;;;;12.43;5.05;;;;;;;;;;4956409;28;20264;-68
2021/12/02 03:56:00;;;;;;;14.60;4.93;;;;;;;;;;4972919;28;20034;-65
2021/12/02 03:58:27;;;;;;;11.25;5.85;;;;;;;;;;4972861;28;20043;-66
2021/12/02 04:00:53;;;;;;;10.55;5.80;;;;;;;;;;4972914;28;20034;-64
2021/12/02 04:03:18;;;;;;;17.55;5.95;;;;;;;;;;4972668;28;20039;-66
2021/12/02 04:05:44;;;;;;;11.40;5.32;;;;;;;;;;4972813;28;20039;-67
2021/12/02 04:08:11;;;;;;;10.05;5.10;;;;;;;;;;4972118;28;20039;-64
2021/12/02 04:10:41;;;;;;;8.13;4.63;;;;;;;;;;4972640;28;20023;-66
2021/12/02 04:13:25;;;;;;;9.80;4.80;;;;;;;;;;4980552;28;20493;-67
2021/12/02 04:15:55;;;;;;;16.90;5.43;;;;;;;;;;4972477;28;20541;-71
2021/12/02 04:18:22;;;;;;;9.65;5.22;;;;;;;;;;4972650;28;20043;-66
2021/12/02 04:20:48;;;;;;;17.10;6.47;;;;;;;;;;4972615;28;20022;-69
2021/12/02 04:23:14;;;;;;;14.80;5.95;;;;;;;;;;4970171;28;20386;-69
2021/12/02 04:25:40;;;;;;;9.70;5.10;;;;;;;;;;4972370;28;20022;-70
2021/12/02 04:28:06;;;;;;;10.68;4.88;;;;;;;;;;4972339;28;20046;-68
2021/12/02 04:30:32;;;;;;;15.65;6.40;;;;;;;;;;4971993;28;20566;-68
2021/12/02 04:32:58;;;;;;;15.18;6.18;;;;;;;;;;4972195;28;20042;-69
2021/12/02 04:35:23;;;;;;;10.82;5.22;;;;;;;;;;4972355;28;20378;-69
2021/12/02 04:37:51;;;;;;;12.75;5.18;;;;;;;;;;4973081;28;20030;-70
2021/12/02 04:40:20;;;;;;;10.55;4.68;;;;;;;;;;4975658;28;20085;-65
2021/12/02 04:42:47;;;;;;;10.05;4.43;;;;;;;;;;4975700;28;20034;-66
2021/12/02 04:45:13;;;;;;;11.95;3.78;;;;;;;;;;4975719;28;20031;-65
2021/12/02 04:47:39;;;;;;;13.90;5.18;;;;;;;;;;4975976;28;20042;-66
2021/12/02 04:50:07;;;;;;;7.82;3.97;;;;;;;;;;4975495;28;20027;-66
2021/12/02 04:52:34;;;;;;;9.43;4.80;;;;;;;;;;4970293;28;20088;-64
2021/12/02 04:55:01;;;;;;;9.18;4.82;;;;;;;;;;4975512;28;20027;-66
2021/12/02 04:57:27;;;;;;;11.73;5.65;;;;;;;;;;4976087;28;20043;-65
2021/12/02 04:59:53;;;;;;;11.02;5.80;;;;;;;;;;4975169;28;20038;-68
2021/12/02 05:02:19;;;;;;;12.40;5.25;;;;;;;;;;4975279;28;20415;-67
2021/12/02 05:04:44;;;;;;;11.88;5.05;;;;;;;;;;4974295;28;20027;-67
2021/12/02 05:07:10;;;;;;;10.48;5.03;;;;;;;;;;4973644;28;20537;-66
2021/12/02 05:09:36;;;;;;;15.48;5.97;;;;;;;;;;4974209;28;20114;-66
2021/12/02 05:12:02;;;;;;;14.68;4.93;;;;;;;;;;4975885;28;20430;-66
2021/12/02 05:14:28;;;;;;;6.85;4.00;;;;;;;;;;4975889;28;20037;-66
2021/12/02 05:16:54;;;;;;;9.40;4.45;;;;;;;;;;4975973;28;20031;-66
2021/12/02 05:19:19;;;;;;;9.95;4.80;;;;;;;;;;4975792;28;20505;-69
2021/12/02 05:21:45;;;;;;;9.68;5.00;;;;;;;;;;4975866;28;20085;-66
2021/12/02 05:24:11;;;;;;;10.00;5.53;;;;;;;;;;4974112;28;20045;-66
2021/12/02 05:26:37;;;;;;;11.82;4.80;;;;;;;;;;4975654;28;20034;-69
2021/12/02 05:29:03;;;;;;;9.85;4.20;;;;;;;;;;4975735;28;20035;-67
2021/12/02 05:31:29;;;;;;;11.50;4.70;;;;;;;;;;4975944;28;20035;-70
2021/12/02 05:33:55;;;;;;;11.63;5.20;;;;;;;;;;4975589;28;20038;-66
2021/12/02 05:36:21;;;;;;;37.38;8.15;;;;;;;;;;4974675;28;20387;-66
2021/12/02 05:38:46;;;;;;;19.60;6.40;;;;;;;;;;4975408;28;20066;-70
2021/12/02 05:41:14;;;;;;;23.52;6.95;;;;;;;;;;5006710;28;20042;-63
2021/12/02 05:43:40;;;;;;;17.13;7.55;;;;;;;;;;4975566;28;20030;-65
2021/12/02 05:46:06;;;;;;;35.42;8.95;;;;;;;;;;4973756;28;20509;-64
2021/12/02 05:48:32;;;;;;;26.00;8.32;;;;;;;;;;4965683;28;20516;-64
2021/12/02 05:50:58;;;;;;;25.42;10.57;;;;;;;;;;4975414;28;20047;-70
2021/12/02 05:53:24;;;;;;;38.70;16.13;;;;;;;;;;4973953;28;20026;-69
2021/12/02 05:55:50;;;;;;;64.32;33.95;;;;;;;;;;4975442;28;20042;-69
2021/12/02 05:58:16;;;;;;;67.20;29.30;;;;;;;;;;4975562;28;20470;-70
2021/12/02 06:00:43;;;;;;;30.00;15.30;;;;;;;;;;4974477;28;20038;-68
2021/12/02 06:03:09;;;;;;;25.83;13.48;;;;;;;;;;4971630;28;20042;-69
2021/12/02 06:05:35;;;;;;;25.85;10.30;;;;;;;;;;4973525;28;20450;-69
2021/12/02 06:08:03;;;;;;;24.80;10.50;;;;;;;;;;4974653;28;20026;-68
2021/12/02 06:10:29;;;;;;;32.03;14.60;;;;;;;;;;4974414;28;20041;-71
2021/12/02 06:12:56;;;;;;;260.15;76.35;;;;;;;;;;4974590;28;20045;-68
2021/12/02 06:15:22;;;;;;;273.70;94.57;;;;;;;;;;4974530;28;20044;-70
2021/12/02 06:17:48;;;;;;;1934.20;718.35;;;;;;;;;;4974785;28;20019;-69
2021/12/02 06:20:17;;;;;;;424.15;125.72;;;;;;;;;;4974923;28;20039;-73
2021/12/02 06:22:44;;;;;;;131.93;37.60;;;;;;;;;;4974678;28;20035;-74
2021/12/02 06:27:48;;;;;;;25.15;11.88;;;;;;;;;;4974225;28;20042;-70
2021/12/02 06:30:18;;;;;;;22.50;11.38;;;;;;;;;;4974786;28;20363;-70
2021/12/02 06:32:44;;;;;;;26.15;12.00;;;;;;;;;;4973155;28;20023;-71
2021/12/02 06:35:10;;;;;;;22.90;10.38;;;;;;;;;;4964784;28;20078;-70
2021/12/02 06:37:36;;;;;;;22.25;10.13;;;;;;;;;;4955265;28;20027;-70
2021/12/02 06:40:04;;;;;;;26.17;9.55;;;;;;;;;;4965793;28;20038;-70
2021/12/02 06:42:29;;;;;;;20.90;10.80;;;;;;;;;;4972890;28;20061;-69
2021/12/02 06:44:57;;;;;;;16.40;8.80;;;;;;;;;;4963527;28;20142;-69
2021/12/02 06:47:28;;;;;;;26.85;9.07;;;;;;;;;;4955229;28;20030;-71
2021/12/02 06:49:56;;;;;;;21.27;9.52;;;;;;;;;;4955026;28;20182;-70
2021/12/02 06:52:23;;;;;;;22.15;9.00;;;;;;;;;;4960429;28;20038;-69
2021/12/02 06:54:50;;;;;;;21.67;9.27;;;;;;;;;;4970778;28;20097;-70
2021/12/02 06:57:17;;;;;;;19.70;8.48;;;;;;;;;;4972570;28;20035;-70
2021/12/02 06:59:43;;;;;;;17.55;9.15;;;;;;;;;;4971321;28;20035;-69
2021/12/02 07:02:10;;;;;;;25.30;14.13;;;;;;;;;;4961469;28;20118;-70
2021/12/02 07:04:35;;;;;;;29.52;15.20;;;;;;;;;;4952526;28;20031;-70
2021/12/02 07:07:01;;;;;;;27.73;14.68;;;;;;;;;;4953265;28;20034;-69
2021/12/02 07:09:27;;;;;;;30.23;14.57;;;;;;;;;;4954598;28;20218;-69
2021/12/02 07:11:53;;;;;;;27.70;13.93;;;;;;;;;;4965339;28;20126;-70
2021/12/02 07:14:20;;;;;;;32.67;17.10;;;;;;;;;;4970897;28;20045;-69
2021/12/02 07:16:46;;;;;;;21.30;13.40;;;;;;;;;;4973831;28;20030;-73
2021/12/02 07:19:12;;;;;;;32.53;15.23;;;;;;;;;;4973833;28;20034;-70
2021/12/02 07:21:40;;;;;;;34.00;14.85;;;;;;;;;;4973954;28;20500;-69
2021/12/02 07:24:13;;;;;;;33.22;15.13;;;;;;;;;;4973590;28;20102;-68
2021/12/02 07:26:41;;;;;;;30.38;14.35;;;;;;;;;;4982845;28;20030;-70
2021/12/02 07:29:09;;;;;;;22.42;13.63;;;;;;;;;;4992750;28;20493;-68
2021/12/02 07:31:35;;;;;;;28.42;13.90;;;;;;;;;;4993023;28;20122;-72
2021/12/02 07:34:02;;;;;;;27.48;15.40;;;;;;;;;;4970758;28;20047;-71
2021/12/02 07:36:31;;;;;;;32.50;14.80;;;;;;;;;;4973193;28;20094;-71
2021/12/02 07:39:00;;;;;;;21.98;12.77;;;;;;;;;;4973160;28;20019;-69
2021/12/02 07:41:26;;;;;;;57.30;15.75;;;;;;;;;;4972006;28;20363;-67
2021/12/02 07:43:52;;;;;;;23.52;12.60;;;;;;;;;;4972279;28;20042;-69
2021/12/02 07:46:18;;;;;;;22.88;12.50;;;;;;;;;;4973226;28;20035;-67
2021/12/02 07:48:44;;;;;;;22.15;13.02;;;;;;;;;;4971979;28;20462;-67
2021/12/02 07:51:16;;;;;;;34.60;13.00;;;;;;;;;;4971177;28;20137;-69
2021/12/02 07:53:44;;;;;;;20.05;11.48;;;;;;;;;;4972441;28;20100;-70
2021/12/02 07:56:13;;;;;;;21.33;11.27;;;;;;;;;;4973264;28;20035;-72
2021/12/02 07:58:41;;;;;;;15.90;10.77;;;;;;;;;;4973309;28;20166;-71
2021/12/02 08:01:08;;;;;;;18.77;10.50;;;;;;;;;;4973083;28;20030;-74
2021/12/02 08:03:34;;;;;;;27.38;11.43;;;;;;;;;;4972885;28;20038;-72
2021/12/02 08:06:00;;;;;;;15.68;9.85;;;;;;;;;;4973277;28;20031;-73
2021/12/02 08:08:25;;;;;;;18.38;9.43;;;;;;;;;;4973181;28;20031;-74
2021/12/02 08:10:52;;;;;;;18.60;10.25;;;;;;;;;;4973049;28;20477;-71
2021/12/02 08:13:19;;;;;;;17.98;10.25;;;;;;;;;;4976274;28;20226;-70
2021/12/02 08:15:45;;;;;;;17.88;10.10;;;;;;;;;;4976906;28;20058;-73
2021/12/02 08:18:11;;;;;;;16.70;9.73;;;;;;;;;;4977001;28;20058;-74
2021/12/02 08:20:37;;;;;;;18.42;11.30;;;;;;;;;;4976875;28;20022;-73
2021/12/02 08:23:04;;;;;;;22.08;13.00;;;;;;;;;;4977064;28;20113;-74
2021/12/02 08:25:31;;;;;;;23.33;12.52;;;;;;;;;;4977162;28;20537;-74
2021/12/02 08:28:00;;;;;;;21.60;11.50;;;;;;;;;;4976742;28;20557;-71
2021/12/02 08:30:27;;;;;;;22.50;11.98;;;;;;;;;;4986845;28;20113;-71
2021/12/02 08:32:54;;;;;;;19.73;12.48;;;;;;;;;;4996413;28;20418;-76
2021/12/02 08:35:21;;;;;;;21.42;11.38;;;;;;;;;;4987992;28;20037;-72
2021/12/02 08:37:49;;;;;;;25.42;13.10;;;;;;;;;;4976559;28;20306;-72
2021/12/02 08:40:18;;;;;;;17.30;10.30;;;;;;;;;;4976591;28;20019;-73
2021/12/02 08:42:46;;;;;;;18.92;10.80;;;;;;;;;;4976240;28;20026;-72
2021/12/02 08:45:13;;;;;;;18.27;10.02;;;;;;;;;;4976500;28;20030;-72
2021/12/02 08:47:47;;;;;;;19.33;10.93;;;;;;;;;;4975948;28;20057;-71
2021/12/02 08:50:19;;;;;;;21.08;12.07;;;;;;;;;;4976290;28;20047;-73
2021/12/02 08:52:47;;;;;;;23.90;11.70;;;;;;;;;;4975906;28;20038;-74
2021/12/02 08:55:14;;;;;;;22.83;11.88;;;;;;;;;;4975684;28;20045;-73
2021/12/02 08:57:40;;;;;;;22.60;10.18;;;;;;;;;;4976235;28;20137;-71
2021/12/02 09:00:08;;;;;;;15.45;9.48;;;;;;;;;;4975997;28;20038;-69
2021/12/02 09:02:34;;;;;;;20.30;9.85;;;;;;;;;;4976062;28;20126;-69
2021/12/02 09:05:00;;;;;;;29.05;12.43;;;;;;;;;;4975937;28;20042;-69
2021/12/02 09:07:27;;;;;;;25.42;11.68;;;;;;;;;;4975825;28;20372;-68
2021/12/02 09:09:52;;;;;;;28.35;14.57;;;;;;;;;;4976029;28;20035;-68
2021/12/02 09:12:18;;;;;;;37.78;13.68;;;;;;;;;;4976136;28;20520;-69
2021/12/02 09:14:44;;;;;;;23.45;11.75;;;;;;;;;;4975771;28;20038;-71
2021/12/02 09:17:10;;;;;;;18.25;11.25;;;;;;;;;;4975871;28;20070;-70
2021/12/02 09:19:36;;;;;;;20.15;11.75;;;;;;;;;;4975759;28;20378;-70
2021/12/02 09:22:02;;;;;;;25.70;11.73;;;;;;;;;;4975264;28;20046;-71
2021/12/02 09:24:28;;;;;;;19.08;10.77;;;;;;;;;;4974996;28;20027;-71
2021/12/02 09:26:54;;;;;;;17.58;10.13;;;;;;;;;;4975724;28;20359;-71
2021/12/02 09:29:21;;;;;;;16.85;10.13;;;;;;;;;;4975618;28;20385;-69
2021/12/02 09:31:49;;;;;;;19.77;10.85;;;;;;;;;;4975598;28;20382;-69
2021/12/02 09:34:15;;;;;;;16.77;10.40;;;;;;;;;;4975358;28;20081;-69
2021/12/02 09:36:42;;;;;;;18.35;10.75;;;;;;;;;;4975366;28;20117;-70
2021/12/02 09:39:09;;;;;;;22.77;10.30;;;;;;;;;;4975479;28;20038;-71
2021/12/02 09:41:35;;;;;;;22.42;11.05;;;;;;;;;;4975199;28;20075;-69
2021/12/02 09:44:02;;;;;;;22.75;11.40;;;;;;;;;;4990311;28;20110;-71
2021/12/02 09:46:28;;;;;;;18.17;9.60;;;;;;;;;;4975442;28;20030;-68
2021/12/02 09:48:58;;;;;;;23.83;11.40;;;;;;;;;;4975194;28;20069;-69
2021/12/02 09:51:32;;;;;;;16.80;9.77;;;;;;;;;;4975228;28;20061;-69
2021/12/02 09:54:08;;;;;;;25.20;10.10;;;;;;;;;;4975353;28;20043;-67
2021/12/02 09:56:36;;;;;;;18.48;10.75;;;;;;;;;;4975215;28;20031;-69
2021/12/02 09:59:12;;;;;;;13.73;9.65;;;;;;;;;;4974907;28;20169;-69
2021/12/02 10:01:49;;;;;;;21.08;11.18;;;;;;;;;;4975069;28;20332;-69
2021/12/02 10:04:15;;;;;;;22.90;10.05;;;;;;;;;;4975060;28;20042;-69
2021/12/02 10:06:42;;;;;;;18.63;9.90;;;;;;;;;;4973976;28;20030;-69
2021/12/02 10:09:23;;;;;;;22.02;9.63;;;;;;;;;;4974626;28;20052;-72
2021/12/02 10:11:56;;;;;;;20.15;9.15;;;;;;;;;;4968679;28;20031;-71
2021/12/02 10:14:34;;;;;;;21.10;9.90;;;;;;;;;;4964450;28;20487;-70
2021/12/02 10:17:09;;;;;;;17.33;8.23;;;;;;;;;;4974563;28;20035;-73
2021/12/02 10:19:35;;;;;;;18.02;8.40;;;;;;;;;;4974220;28;20098;-73
2021/12/02 10:22:09;;;;;;;21.02;8.80;;;;;;;;;;4974182;28;20031;-73
2021/12/02 10:24:40;;;;;;;;;;;;;;;;;;4974405;28;20457;-73
2021/12/02 10:27:06;;;;;;;16.15;7.85;;;;;;;;;;4971708;28;19997;-74
2021/12/02 10:29:34;;;;;;;16.40;8.27;;;;;;;;;;4969534;28;20113;-74
2021/12/02 10:32:12;;;;;;;20.60;7.35;;;;;;;;;;4973801;28;20438;-72
2021/12/02 10:35:03;;;;;;;17.70;8.60;;;;;;;;;;4966840;28;20046;-76
2021/12/02 10:37:39;;;;;;;20.63;7.63;;;;;;;;;;4973766;28;20129;-74
2021/12/02 10:40:10;;;;;;;16.70;9.32;;;;;;;;;;4973985;28;20505;-72
2021/12/02 10:42:41;;;;;;;15.52;8.68;;;;;;;;;;4974001;28;20058;-75
2021/12/02 10:45:18;;;;;;;12.68;7.53;;;;;;;;;;4974107;28;20049;-73
2021/12/02 10:47:51;;;;;;;14.70;8.27;;;;;;;;;;4973946;28;20469;-72
2021/12/02 10:50:17;;;;;;;;;;;;;;;;;;4989056;28;20371;-72
2021/12/02 10:52:43;;;;;;;25.60;10.18;;;;;;;;;;4981115;28;19914;-73
2021/12/02 10:55:19;;;;;;;14.27;9.57;;;;;;;;;;4977473;28;20060;-73
2021/12/02 10:57:48;;;;;;;19.38;10.00;;;;;;;;;;4984645;28;20050;-73
2021/12/02 11:00:17;;;;;;;21.48;10.88;;;;;;;;;;4966941;28;20027;-73
2021/12/02 11:02:48;;;;;;;22.67;10.45;;;;;;;;;;4973318;28;20061;-71
2021/12/02 11:05:20;;;;;;;19.60;10.10;;;;;;;;;;4970424;28;20039;-73
2021/12/02 11:08:05;;;;;;;20.58;8.85;;;;;;;;;;4972443;28;20035;-71
2021/12/02 11:10:35;;;;;;;10.90;6.68;;;;;;;;;;4973274;28;20035;-72
2021/12/02 11:13:00;;;;;;;17.55;6.75;;;;;;;;;;4973224;28;20023;-71
2021/12/02 11:15:28;;;;;;;12.95;6.60;;;;;;;;;;4973434;28;20045;-71
2021/12/02 11:17:57;;;;;;;16.95;6.68;;;;;;;;;;4969893;28;20027;-71
2021/12/02 11:20:26;;;;;;;13.30;7.20;;;;;;;;;;4969763;28;20030;-75
2021/12/02 11:23:13;;;;;;;11.98;6.18;;;;;;;;;;4966837;28;20097;-70
2021/12/02 11:26:01;;;;;;;12.18;6.30;;;;;;;;;;4971215;28;20035;-72
2021/12/02 11:28:30;;;;;;;29.85;8.50;;;;;;;;;;4974339;28;20042;-74
2021/12/02 11:30:57;;;;;;;14.20;6.88;;;;;;;;;;4972128;28;20041;-72
2021/12/02 11:33:31;;;;;;;23.50;8.32;;;;;;;;;;4969534;28;20158;-74
2021/12/02 11:35:57;;;;;;;18.13;8.80;;;;;;;;;;4970037;28;20160;-71
2021/12/02 11:38:26;;;;;;;18.23;9.02;;;;;;;;;;4955303;28;20435;-72
2021/12/02 11:40:54;;;;;;;24.40;11.45;;;;;;;;;;4953900;28;20050;-71
2021/12/02 11:43:33;;;;;;;21.25;10.27;;;;;;;;;;4954173;28;20394;-72
2021/12/02 11:46:01;;;;;;;17.98;9.65;;;;;;;;;;4953785;28;20093;-74
2021/12/02 11:48:29;;;;;;;18.55;9.90;;;;;;;;;;4983770;28;20098;-72
2021/12/02 11:50:59;;;;;;;24.95;9.70;;;;;;;;;;4973037;28;20031;-73
2021/12/02 11:53:25;;;;;;;16.92;9.73;;;;;;;;;;4972563;28;20035;-73
2021/12/02 11:56:00;;;;;;;21.40;10.13;;;;;;;;;;4973114;28;20421;-73
2021/12/02 11:58:27;;;;;;;29.55;10.43;;;;;;;;;;4973022;28;20035;-73
2021/12/02 12:00:53;;;;;;;19.90;9.32;;;;;;;;;;4972975;28;20034;-74
2021/12/02 12:03:24;;;;;;;15.00;9.00;;;;;;;;;;4972793;28;20038;-73
2021/12/02 12:06:01;;;;;;;16.73;9.73;;;;;;;;;;4972767;28;20394;-74
2021/12/02 12:08:47;;;;;;;25.38;10.10;;;;;;;;;;4972220;28;20034;-74
2021/12/02 12:11:20;;;;;;;20.52;9.45;;;;;;;;;;4971471;28;20049;-72
2021/12/02 12:13:48;;;;;;;19.25;9.25;;;;;;;;;;4972753;28;20046;-71
2021/12/02 12:16:27;;;;;;;18.25;9.40;;;;;;;;;;4973097;28;20109;-73
2021/12/02 12:18:55;;;;;;;19.73;9.02;;;;;;;;;;4973169;28;20465;-72
2021/12/02 12:21:44;;;;;;;21.65;11.00;;;;;;;;;;4959187;28;20031;-71
2021/12/02 12:24:14;;;;;;;31.75;15.77;;;;;;;;;;4953605;28;20066;-72
2021/12/02 12:26:44;;;;;;;30.50;15.93;;;;;;;;;;4953350;28;20030;-73
2021/12/02 12:29:13;;;;;;;44.97;18.23;;;;;;;;;;4954031;28;20401;-73
2021/12/02 12:31:55;;;;;;;40.30;13.32;;;;;;;;;;4952582;29;20050;-76
2021/12/02 12:34:37;;;;;;;26.73;11.48;;;;;;;;;;4953855;28;20126;-72
2021/12/02 12:37:36;;;;;;;30.45;13.88;;;;;;;;;;4958668;28;20186;-75
2021/12/02 12:40:13;;;;;;;40.60;16.38;;;;;;;;;;4973050;28;20169;-73
2021/12/02 12:42:46;;;;;;;27.95;14.68;;;;;;;;;;4973149;28;20031;-73
2021/12/02 12:45:22;;;;;;;26.70;13.45;;;;;;;;;;4972727;28;20039;-73
2021/12/02 12:47:51;;;;;;;29.20;13.00;;;;;;;;;;4972695;28;20109;-71
2021/12/02 12:50:35;;;;;;;21.65;11.43;;;;;;;;;;4972831;28;20038;-73
2021/12/02 12:55:41;;;;;;;23.02;11.98;;;;;;;;;;4972830;28;20474;-72
2021/12/02 12:58:16;;;;;;;29.15;13.60;;;;;;;;;;4973047;28;20030;-71
2021/12/02 13:00:47;;;;;;;27.75;13.27;;;;;;;;;;4975681;28;20200;-73
2021/12/02 13:06:32;;;;;;;26.65;11.88;;;;;;;;;;4976264;28;20526;-71
2021/12/02 13:09:01;;;;;;;27.27;13.80;;;;;;;;;;4975122;28;20038;-72
2021/12/02 13:11:29;;;;;;;;;;;;;;;;;;4976659;28;20035;-71
2021/12/02 13:13:57;;;;;;;36.67;14.63;;;;;;;;;;4975179;28;20386;-72
2021/12/02 13:16:22;;;;;;;31.67;13.80;;;;;;;;;;4976287;28;20118;-73
2021/12/02 13:18:48;;;;;;;23.80;12.30;;;;;;;;;;4976277;28;20119;-71
2021/12/02 13:21:29;;;;;;;25.10;11.95;;;;;;;;;;4975863;28;20042;-73
2021/12/02 13:24:04;;;;;;;22.13;12.00;;;;;;;;;;4975797;28;20497;-71
2021/12/02 13:26:33;;;;;;;20.33;9.32;;;;;;;;;;4975788;28;20041;-71
2021/12/02 13:29:04;;;;;;;23.13;11.77;;;;;;;;;;4975534;28;20039;-70
2021/12/02 13:31:31;;;;;;;23.05;10.32;;;;;;;;;;4975525;28;20062;-71
2021/12/02 13:33:58;;;;;;;21.10;10.15;;;;;;;;;;4976003;28;20351;-71
2021/12/02 13:36:47;;;;;;;20.00;11.93;;;;;;;;;;4976029;28;20058;-73
2021/12/02 13:39:17;;;;;;;24.83;13.65;;;;;;;;;;4975737;28;20043;-72
2021/12/02 13:41:51;;;;;;;30.02;14.13;;;;;;;;;;4966947;28;20085;-71
2021/12/02 13:44:25;;;;;;;20.45;10.10;;;;;;;;;;4972998;28;20023;-73
2021/12/02 13:46:57;;;;;;;21.92;10.35;;;;;;;;;;4962778;28;20082;-72
2021/12/02 13:49:27;;;;;;;22.63;9.52;;;;;;;;;;4999344;28;20179;-71
2021/12/02 13:54:47;;;;;;;18.58;10.43;;;;;;;;;;4975075;28;20339;-73
2021/12/02 13:57:29;;;;;;;27.75;11.73;;;;;;;;;;4953810;28;20172;-73
2021/12/02 13:59:55;;;;;;;20.17;11.57;;;;;;;;;;4956177;29;20082;-70
2021/12/02 14:02:24;;;;;;;44.33;14.30;;;;;;;;;;4956204;28;20027;-72
2021/12/02 14:04:51;;;;;;;28.98;12.50;;;;;;;;;;4954771;28;20071;-71
2021/12/02 14:07:23;;;;;;;29.55;15.50;;;;;;;;;;4955359;28;20476;-71
2021/12/02 14:09:58;;;;;;;24.02;10.80;;;;;;;;;;4956265;28;20046;-70
2021/12/02 14:12:36;;;;;;;30.60;12.77;;;;;;;;;;4956273;28;20032;-69
2021/12/02 14:15:12;;;;;;;21.92;11.23;;;;;;;;;;4954610;29;20118;-71
2021/12/02 14:18:03;;;;;;;21.45;10.40;;;;;;;;;;4947774;28;20133;-71
2021/12/02 14:20:36;;;;;;;28.38;11.50;;;;;;;;;;4955858;28;20057;-71
2021/12/02 14:23:06;;;;;;;25.13;10.90;;;;;;;;;;4966869;28;20379;-72
2021/12/02 14:25:33;;;;;;;21.65;10.55;;;;;;;;;;4986186;28;20031;-71
2021/12/02 14:28:25;;;;;;;21.73;9.52;;;;;;;;;;4994185;28;20046;-71
2021/12/02 14:31:00;;;;;;;18.90;9.20;;;;;;;;;;4977069;28;20031;-69
2021/12/02 14:33:29;;;;;;;18.75;8.55;;;;;;;;;;4975460;28;20041;-70
2021/12/02 14:36:13;;;;;;;25.83;9.02;;;;;;;;;;4983043;28;20031;-75
2021/12/02 14:38:43;;;;;;;16.63;8.57;;;;;;;;;;4986228;28;20062;-73
2021/12/02 14:41:24;;;;;;;15.23;7.70;;;;;;;;;;4974224;28;20093;-72
2021/12/02 14:43:53;;;;;;;17.33;7.90;;;;;;;;;;4970775;28;20474;-70
2021/12/02 14:46:20;;;;;;;18.13;8.93;;;;;;;;;;4973327;28;20106;-71
2021/12/02 14:48:59;;;;;;;22.75;9.15;;;;;;;;;;4973449;28;20474;-72
2021/12/02 14:51:25;;;;;;;22.48;11.32;;;;;;;;;;4973075;28;20106;-71
2021/12/02 14:53:58;;;;;;;15.57;9.35;;;;;;;;;;4971599;28;20126;-73
2021/12/02 14:56:36;;;;;;;16.70;9.60;;;;;;;;;;4972182;28;20097;-70
2021/12/02 14:59:20;;;;;;;13.90;8.10;;;;;;;;;;4973075;28;20065;-73
2021/12/02 15:02:02;;;;;;;23.70;9.32;;;;;;;;;;4971908;28;20035;-74